createdAt,value
2023-03-28T00:02:27.265Z,0.90
2023-03-28T00:06:47.373Z,0.80
2023-03-28T00:11:19.651Z,0.80
2023-03-28T00:15:40.190Z,0.80
2023-03-28T00:19:58.035Z,0.80
2023-03-28T00:24:18.112Z,0.80
2023-03-28T00:28:35.662Z,0.80
2023-03-28T00:32:53.203Z,0.90
2023-03-28T00:37:14.833Z,1.00
2023-03-28T00:41:40.140Z,1.10
2023-03-28T00:46:08.739Z,1.20
2023-03-28T00:50:31.225Z,1.20
2023-03-28T00:54:48.468Z,1.20
2023-03-28T00:59:12.680Z,1.30
2023-03-28T01:03:35.147Z,1.30
2023-03-28T01:07:58.837Z,1.40
2023-03-28T01:12:17.606Z,1.40
2023-03-28T01:16:41.552Z,1.40
2023-03-28T01:21:17.599Z,1.50
2023-03-28T01:25:49.950Z,1.50
2023-03-28T01:30:47.678Z,1.40
2023-03-28T01:35:47.093Z,1.40
2023-03-28T01:40:11.434Z,1.50
2023-03-28T01:44:54.554Z,1.50
2023-03-28T01:49:37.579Z,1.60
2023-03-28T01:54:08.204Z,1.60
2023-03-28T01:58:44.435Z,1.60
2023-03-28T02:03:22.751Z,1.60
2023-03-28T02:07:42.580Z,1.60
2023-03-28T02:12:09.853Z,1.70
2023-03-28T02:16:28.402Z,1.70
2023-03-28T02:20:48.909Z,1.70
2023-03-28T02:25:06.937Z,1.70
2023-03-28T02:29:24.299Z,1.70
2023-03-28T02:33:44.786Z,1.70
2023-03-28T02:38:14.873Z,1.70
2023-03-28T02:43:01.454Z,1.70
2023-03-28T02:47:32.551Z,1.70
2023-03-28T02:51:59.750Z,1.70
2023-03-28T02:56:25.530Z,1.70
2023-03-28T03:00:47.283Z,1.70
2023-03-28T03:05:04.863Z,1.50
2023-03-28T03:09:23.104Z,1.30
2023-03-28T03:13:40.409Z,1.40
2023-03-28T03:17:59.036Z,1.50
2023-03-28T03:22:20.795Z,1.50
2023-03-28T03:26:38.623Z,1.60
2023-03-28T03:30:55.996Z,1.60
2023-03-28T03:35:13.324Z,1.60
2023-03-28T03:39:31.029Z,1.60
2023-03-28T03:43:49.873Z,1.70
2023-03-28T03:48:07.219Z,1.60
2023-03-28T03:52:24.585Z,1.70
2023-03-28T03:56:42.292Z,1.70
2023-03-28T04:00:59.674Z,1.70
2023-03-28T04:05:16.997Z,1.60
2023-03-28T04:09:34.202Z,1.60
2023-03-28T04:13:51.623Z,1.50
2023-03-28T04:18:09.788Z,1.50
2023-03-28T04:22:30.796Z,1.50
2023-03-28T04:26:50.252Z,1.50
2023-03-28T04:31:07.855Z,1.50
2023-03-28T04:35:25.143Z,1.50
2023-03-28T04:39:44.618Z,1.40
2023-03-28T04:44:01.956Z,1.50
2023-03-28T04:48:19.664Z,1.40
2023-03-28T04:52:37.215Z,1.30
2023-03-28T04:56:54.805Z,1.30
2023-03-28T05:01:12.177Z,1.40
2023-03-28T05:05:29.516Z,1.40
2023-03-28T05:09:48.286Z,1.30
2023-03-28T05:14:05.626Z,1.40
2023-03-28T05:18:23.173Z,1.40
2023-03-28T05:22:41.015Z,1.30
2023-03-28T05:26:58.383Z,1.30
2023-03-28T05:31:17.314Z,1.20
2023-03-28T05:35:34.911Z,1.30
2023-03-28T05:39:52.210Z,1.30
2023-03-28T05:44:09.502Z,1.30
2023-03-28T05:48:26.724Z,1.40
2023-03-28T05:52:44.173Z,1.40
2023-03-28T05:57:01.635Z,1.40
2023-03-28T06:01:19.074Z,1.50
2023-03-28T06:05:37.116Z,1.70
2023-03-28T06:09:54.288Z,1.60
2023-03-28T06:14:12.163Z,1.60
2023-03-28T06:18:29.720Z,1.80
2023-03-28T06:22:47.000Z,2.00
2023-03-28T06:27:04.423Z,2.20
2023-03-28T06:31:21.729Z,2.20
2023-03-28T06:35:39.401Z,2.10
2023-03-28T06:39:57.122Z,2.30
2023-03-28T06:44:14.333Z,2.30
2023-03-28T06:48:33.557Z,2.40
2023-03-28T06:52:52.321Z,2.30
2023-03-28T06:57:09.633Z,2.40
2023-03-28T07:01:27.224Z,2.50
2023-03-28T07:05:45.003Z,2.60
2023-03-28T07:10:03.053Z,2.80
2023-03-28T07:14:20.896Z,2.80
2023-03-28T07:18:38.672Z,2.50
2023-03-28T07:22:56.130Z,2.40
2023-03-28T07:27:16.121Z,2.20
2023-03-28T07:31:34.627Z,2.20
2023-03-28T07:35:53.036Z,2.20
2023-03-28T07:40:10.940Z,2.40
2023-03-28T07:44:28.259Z,2.90
2023-03-28T07:48:46.653Z,3.30
2023-03-28T07:53:04.057Z,3.50
2023-03-28T07:57:21.288Z,3.30
2023-03-28T08:01:38.540Z,3.20
2023-03-28T08:05:55.910Z,3.30
2023-03-28T08:10:14.305Z,3.00
2023-03-28T08:14:31.532Z,2.70
2023-03-28T08:18:56.962Z,2.60
2023-03-28T08:23:21.730Z,3.00
2023-03-28T08:27:39.003Z,3.60
2023-03-28T08:31:56.387Z,4.40
2023-03-28T08:36:14.818Z,4.20
2023-03-28T08:40:33.245Z,3.60
2023-03-28T08:44:56.739Z,3.60
2023-03-28T08:49:19.599Z,3.80
2023-03-28T08:53:42.566Z,4.70
2023-03-28T08:57:59.993Z,4.90
2023-03-28T09:02:22.221Z,4.30
2023-03-28T09:06:43.411Z,3.70
2023-03-28T09:11:06.521Z,4.40
2023-03-28T09:15:29.961Z,4.90
2023-03-28T09:19:52.895Z,5.50
2023-03-28T09:24:28.637Z,5.40
2023-03-28T09:29:05.965Z,5.20
2023-03-28T09:33:46.363Z,5.10
2023-03-28T09:38:06.515Z,5.50
2023-03-28T09:42:32.106Z,5.70
2023-03-28T09:46:49.599Z,6.10
2023-03-28T09:51:14.586Z,5.70
2023-03-28T09:55:32.120Z,5.20
2023-03-28T09:59:49.381Z,4.80
2023-03-28T10:04:15.841Z,4.70
2023-03-28T10:08:40.251Z,5.60
2023-03-28T10:13:02.347Z,6.20
2023-03-28T10:17:30.043Z,4.80
2023-03-28T10:21:48.692Z,5.50
2023-03-28T10:26:06.217Z,6.50
2023-03-28T10:30:31.351Z,7.20
2023-03-28T10:35:27.999Z,8.20
2023-03-28T10:39:59.423Z,8.00
2023-03-28T10:44:26.105Z,7.80
2023-03-28T10:48:58.630Z,6.70
2023-03-28T10:53:39.679Z,6.10
2023-03-28T10:58:10.423Z,8.20
2023-03-28T11:02:42.001Z,9.70
2023-03-28T11:07:11.302Z,8.50
2023-03-28T11:11:41.666Z,6.20
2023-03-28T11:16:07.776Z,5.10
2023-03-28T11:20:47.031Z,4.10
2023-03-28T11:25:13.154Z,4.90
2023-03-28T11:29:43.735Z,7.60
2023-03-28T11:34:26.294Z,9.00
2023-03-28T11:38:52.565Z,9.40
2023-03-28T11:43:14.022Z,9.00
2023-03-28T11:47:42.020Z,8.10
2023-03-28T11:53:25.204Z,6.50
2023-03-28T11:58:18.287Z,6.20
2023-03-28T12:02:53.565Z,6.20
2023-03-28T12:07:27.771Z,6.50
2023-03-28T12:11:59.106Z,8.00
2023-03-28T12:16:21.800Z,7.20
2023-03-28T12:21:00.825Z,6.20
2023-03-28T12:25:42.852Z,5.40
2023-03-28T12:30:14.633Z,5.30
2023-03-28T12:34:53.423Z,7.40
2023-03-28T12:39:44.649Z,8.40
2023-03-28T12:44:37.232Z,10.10
2023-03-28T12:49:00.882Z,8.20
2023-03-28T12:53:19.017Z,7.20
2023-03-28T12:57:48.826Z,7.20
2023-03-28T13:02:31.744Z,7.40
2023-03-28T13:07:05.473Z,7.80
2023-03-28T13:11:29.679Z,8.10
2023-03-28T13:16:37.940Z,10.30
2023-03-28T13:20:56.723Z,10.40
2023-03-28T13:25:21.353Z,8.70
2023-03-28T13:29:58.465Z,7.90
2023-03-28T13:34:23.762Z,8.60
2023-03-28T13:38:48.616Z,7.70
2023-03-28T13:43:25.049Z,7.90
2023-03-28T13:47:44.235Z,8.90
2023-03-28T13:52:16.576Z,9.50
2023-03-28T13:56:37.602Z,8.20
2023-03-28T14:01:15.560Z,7.20
2023-03-28T14:05:34.199Z,7.20
2023-03-28T14:09:54.733Z,7.00
2023-03-28T14:14:22.950Z,7.10
2023-03-28T14:18:50.297Z,7.20
2023-03-28T14:23:07.777Z,7.10
2023-03-28T14:27:48.145Z,6.80
2023-03-28T14:32:22.121Z,6.80
2023-03-28T14:37:01.311Z,6.70
2023-03-28T14:41:21.784Z,6.60
2023-03-28T14:45:54.532Z,6.40
2023-03-28T14:50:15.846Z,6.30
2023-03-28T14:54:41.622Z,6.20
2023-03-28T14:59:02.379Z,6.20
2023-03-28T15:03:24.418Z,6.10
2023-03-28T15:07:42.625Z,6.10
2023-03-28T15:12:09.269Z,6.30
2023-03-28T15:16:31.660Z,6.30
2023-03-28T15:20:56.621Z,6.30
2023-03-28T15:25:15.087Z,6.30
2023-03-28T15:29:38.847Z,6.40
2023-03-28T15:34:00.162Z,6.60
2023-03-28T15:38:32.271Z,6.40
2023-03-28T15:42:52.051Z,6.40
2023-03-28T15:47:22.436Z,6.40
2023-03-28T15:51:51.019Z,6.30
2023-03-28T15:56:18.718Z,6.40
2023-03-28T16:00:53.403Z,6.50
2023-03-28T16:05:14.975Z,6.50
2023-03-28T16:09:41.176Z,6.70
2023-03-28T16:14:01.395Z,6.90
2023-03-28T16:18:30.684Z,6.80
2023-03-28T16:22:51.581Z,6.70
2023-03-28T16:27:09.135Z,6.60
2023-03-28T16:31:29.277Z,6.50
2023-03-28T16:35:46.839Z,6.50
2023-03-28T16:40:08.314Z,6.40
2023-03-28T16:44:26.357Z,6.30
2023-03-28T16:48:45.270Z,6.20
2023-03-28T16:53:04.827Z,6.10
2023-03-28T16:57:22.300Z,6.00
2023-03-28T17:01:43.176Z,5.90
2023-03-28T17:06:09.823Z,5.80
2023-03-28T17:10:31.896Z,5.80
2023-03-28T17:14:52.485Z,5.70
2023-03-28T17:19:12.925Z,5.50
2023-03-28T17:23:36.924Z,5.40
2023-03-28T17:27:54.545Z,5.20
2023-03-28T17:32:12.015Z,4.90
2023-03-28T17:36:29.818Z,4.40
2023-03-28T17:40:47.854Z,4.10
2023-03-28T17:45:07.491Z,4.00
2023-03-28T17:49:25.306Z,3.60
2023-03-28T17:53:44.817Z,3.40
2023-03-28T17:58:02.629Z,3.20
2023-03-28T18:02:20.876Z,2.90
2023-03-28T18:06:38.934Z,2.70
2023-03-28T18:11:08.537Z,2.50
2023-03-28T18:15:25.973Z,2.40
2023-03-28T18:19:43.440Z,2.10
2023-03-28T18:24:00.917Z,2.00
2023-03-28T18:28:22.401Z,1.80
2023-03-28T18:32:39.890Z,1.60
2023-03-28T18:37:00.170Z,1.50
2023-03-28T18:41:18.105Z,1.40
2023-03-28T18:45:36.611Z,1.40
2023-03-28T18:49:54.242Z,1.30
2023-03-28T18:54:11.602Z,1.30
2023-03-28T18:58:29.303Z,1.20
2023-03-28T19:02:47.999Z,1.20
2023-03-28T19:07:06.387Z,1.10
2023-03-28T19:11:23.759Z,1.10
2023-03-28T19:15:41.435Z,1.10
2023-03-28T19:19:59.851Z,1.00
2023-03-28T19:24:21.395Z,1.00
2023-03-28T19:28:39.340Z,1.00
2023-03-28T19:32:56.908Z,0.90
2023-03-28T19:37:14.549Z,1.00
2023-03-28T19:41:31.929Z,0.90
2023-03-28T19:45:50.245Z,0.90
2023-03-28T19:50:11.313Z,0.90
2023-03-28T19:54:28.889Z,0.80
2023-03-28T19:58:46.999Z,0.80
2023-03-28T20:03:04.464Z,0.80
2023-03-28T20:07:21.929Z,0.90
2023-03-28T20:11:41.973Z,1.00
2023-03-28T20:16:03.588Z,1.10
2023-03-28T20:20:20.914Z,1.10
2023-03-28T20:24:38.665Z,1.20
2023-03-28T20:28:59.393Z,1.30
2023-03-28T20:33:17.418Z,1.30
2023-03-28T20:37:34.826Z,1.30
2023-03-28T20:41:53.017Z,1.40
2023-03-28T20:46:12.895Z,1.50
2023-03-28T20:50:41.531Z,1.50
2023-03-28T20:54:59.040Z,1.40
2023-03-28T20:59:16.182Z,1.30
2023-03-28T21:03:46.915Z,1.10
2023-03-28T21:08:08.341Z,1.00
2023-03-28T21:12:27.591Z,0.80
2023-03-28T21:16:45.270Z,0.60
2023-03-28T21:21:04.118Z,0.50
2023-03-28T21:25:21.606Z,0.50
2023-03-28T21:29:39.924Z,0.40
2023-03-28T21:33:58.858Z,0.40
2023-03-28T21:38:16.181Z,0.50
2023-03-28T21:42:34.999Z,0.50
2023-03-28T21:46:52.304Z,0.60
2023-03-28T21:51:09.643Z,0.60
2023-03-28T21:55:26.958Z,0.60
2023-03-28T21:59:46.049Z,0.70
2023-03-28T22:04:03.756Z,0.80
2023-03-28T22:08:22.164Z,0.80
2023-03-28T22:12:41.876Z,0.90
2023-03-28T22:17:01.958Z,0.90
2023-03-28T22:21:19.202Z,1.00
2023-03-28T22:25:38.510Z,1.00
2023-03-28T22:29:56.915Z,1.00
2023-03-28T22:34:16.240Z,1.10
2023-03-28T22:38:33.625Z,1.10
2023-03-28T22:42:50.920Z,1.10
2023-03-28T22:47:08.784Z,1.10
2023-03-28T22:51:27.834Z,1.20
2023-03-28T22:55:45.601Z,1.20
2023-03-28T23:00:04.362Z,1.20
2023-03-28T23:04:23.552Z,1.30
2023-03-28T23:08:40.935Z,1.30
2023-03-28T23:12:58.777Z,1.20
2023-03-28T23:17:16.006Z,1.20
2023-03-28T23:21:33.828Z,1.10
2023-03-28T23:25:51.467Z,1.10
2023-03-28T23:30:10.758Z,1.00
2023-03-28T23:34:28.192Z,0.90
2023-03-28T23:38:45.544Z,0.70
2023-03-28T23:43:02.911Z,0.60
2023-03-28T23:47:20.513Z,0.50
2023-03-28T23:51:37.823Z,0.40
2023-03-28T23:55:55.075Z,0.40
